aviador You're here:

KJMS Decoded Metar

JAMESTOWN in ND, USA
Report Time2018-06-24 21:56:00
UTC Time2018-06-24 22:48:26
Flight Rules vfr VFR
Wind100° at 09 kt
W.Decomp.*RWY 13: 7.1 kt HW 5.5 kt LCW
RWY 04: 5.5 kt HW 7.1 kt RCW
W.Rank100° ranks 30
Current wind is above 100° avg. (7.6)
Visibility9999 m
Phenomena:N/A
Clouds:Few 019 Hf
Few 100 Hf
Expected CloudBase > 1,200 ft AGL from Temp-Dew spread
CeilingNone
Temp22°C (ISA +10)
Dew Point19°C (83% RH)
QNH1013 hPa
Density Alt2,949 ft
Elevation1,493 ft
Report Wrong Elevation
Raw Report
KJMS 242156Z AUTO 10009KT 10SM FEW019 FEW100 22/19 A2990 RMK AO2
SLP121 T02220189=

Extra information for KJMS:More info

Metar Taf Metar & Taf Last 4 Metars F.Rules Stats Wind Profile Meteogram Temp Stats Airport Information Weather charts Add Link Nearby VenuesMetar ALERT Operation Metar Decoded Social comments

AIRNAV info for KJMS